Pisek, ND (58273)

7:57 AM CDT on April 19, 2015 (GMT -0500)
Hoople nd | | Change Station
CLOSE
Current Station
Personal Weather Station
Location: Hoople, ND
Elevation: 870 ft
Nearby Weather Stations

Elev 870 ft 48.52 °N, 97.62 °W | Updated 8 minutes ago

Rain
Rain
42.7 °F
Feels Like 37 °F
N
11.0
Wind Variable Wind from WNW
Gusts 14.0 mph

Today
High -- | Low -- °F
--% Chance of Precip.
Yesterday
High -- | Low -- °F
Precip. -- in
6:33 AM 8:27 PM
New Moon, 1% visible
Pressure 29.74 in
Visibility 5.0 miles
Clouds Mostly Cloudy 2100 ft
Mostly Cloudy 3000 ft
Overcast 3700 ft
Windchill 37 °F
Dew Point 40 °F
Humidity 91%
Rainfall 0.18 in
Snow Depth Not available.
UV 0 out of 12
Pollen 3.60 out of 12
Air Quality Not available.
Flu Activity Regional
METAR KGAF 191255Z AUTO 32011KT 5SM -RA BKN021 BKN030 OVC037 07/07 A2974 RMK AO2

More Conditions Fewer Conditions

Pressure 29.74 in
Visibility 5.0 miles
Clouds Mostly Cloudy 2100 ft
Mostly Cloudy 3000 ft
Overcast 3700 ft
Windchill 37 °F
Dew Point 40 °F
Humidity 91%
Rainfall 0.18 in
Snow Depth Not available.
UV 0 out of 12
Pollen 3.60 out of 12
Air Quality Not available.
Flu Activity Regional
METAR KGAF 191255Z AUTO 32011KT 5SM -RA BKN021 BKN030 OVC037 07/07 A2974 RMK AO2

More Conditions Fewer Conditions

10-Day Weather Forecast

Almanac

Astronomy

Apr. 19, 2015 Rise Set
Actual Time
Civil Twilight
Nautical Twilight
Astronomical Twilight
Moon
Length of Visible Light
Length of Day
Tomorrow will be .
, % of the Moon is Illuminated

Today's Extremes

State Highs State Lows

Community

WunderPhotos

Upload Photos

1,814,775 photos uploaded!

WunderBlogs® & News

Nearby

Air Quality

  Air Quality AQ Index Pollutant
Not available.

Snow Depth

Station Depth Elevation

Earthquake Activity

City Distance Mag. Time & Date
Minimum magnitude displayed is 2.5.

Coastal Water Temperatures

Place Temperature

Stations

Nearby Weather Stations

Station Location Temp. Windchill Dew Point Humidity Wind Precip. Elev Updated Type